createdAt,value
2023-05-03T00:00:08.723Z,1.60
2023-05-03T00:02:40.353Z,1.70
2023-05-03T00:05:13.020Z,1.70
2023-05-03T00:07:44.702Z,1.40
2023-05-03T00:10:15.877Z,1.67
2023-05-03T00:12:45.032Z,1.80
2023-05-03T00:15:13.256Z,1.63
2023-05-03T00:17:42.743Z,1.50
2023-05-03T00:20:12.182Z,1.37
2023-05-03T00:22:40.379Z,1.67
2023-05-03T00:25:10.160Z,1.83
2023-05-03T00:27:38.538Z,1.70
2023-05-03T00:30:07.977Z,1.60
2023-05-03T00:32:36.234Z,1.70
2023-05-03T00:35:06.853Z,1.77
2023-05-03T00:37:34.885Z,2.17
2023-05-03T00:40:03.210Z,1.60
2023-05-03T00:42:31.473Z,1.60
2023-05-03T00:44:59.676Z,1.90
2023-05-03T00:47:28.004Z,1.93
2023-05-03T00:49:56.190Z,1.70
2023-05-03T00:52:27.183Z,1.73
2023-05-03T00:54:55.563Z,1.67
2023-05-03T00:57:24.566Z,1.60
2023-05-03T00:59:54.478Z,1.60
2023-05-03T01:02:22.967Z,1.57
2023-05-03T01:04:51.343Z,1.73
2023-05-03T01:07:33.194Z,1.90
2023-05-03T01:10:06.116Z,2.00
2023-05-03T01:12:48.670Z,1.60
2023-05-03T01:15:22.254Z,1.70
2023-05-03T01:17:55.694Z,1.60
2023-05-03T01:20:25.853Z,1.90
2023-05-03T01:23:15.734Z,1.80
2023-05-03T01:25:45.210Z,1.70
2023-05-03T01:28:13.355Z,1.83
2023-05-03T01:30:43.048Z,1.70
2023-05-03T01:33:15.235Z,2.07
2023-05-03T01:35:47.940Z,2.00
2023-05-03T01:38:18.789Z,1.83
2023-05-03T01:40:51.239Z,1.90
2023-05-03T01:43:21.333Z,1.93
2023-05-03T01:45:50.180Z,1.70
2023-05-03T01:48:19.649Z,1.87
2023-05-03T01:50:47.914Z,1.77
2023-05-03T01:53:16.046Z,1.87
2023-05-03T01:55:44.242Z,1.73
2023-05-03T01:58:14.477Z,1.67
2023-05-03T02:00:42.798Z,1.80
2023-05-03T02:03:11.097Z,1.70
2023-05-03T02:05:40.102Z,1.27
2023-05-03T02:08:08.214Z,1.70
2023-05-03T02:10:36.235Z,1.43
2023-05-03T02:13:04.420Z,1.50
2023-05-03T02:15:34.030Z,1.23
2023-05-03T02:18:04.088Z,1.00
2023-05-03T02:20:36.590Z,1.13
2023-05-03T02:23:05.178Z,1.17
2023-05-03T02:25:33.443Z,1.37
2023-05-03T02:28:01.619Z,1.20
2023-05-03T02:30:29.900Z,1.40
2023-05-03T02:32:59.436Z,1.30
2023-05-03T02:35:27.968Z,1.10
2023-05-03T02:37:57.032Z,1.20
2023-05-03T02:40:25.399Z,0.90
2023-05-03T02:42:54.422Z,1.33
2023-05-03T02:45:27.553Z,1.00
2023-05-03T02:47:55.791Z,1.13
2023-05-03T02:50:27.468Z,1.27
2023-05-03T02:52:56.007Z,1.30
2023-05-03T02:55:24.240Z,1.10
2023-05-03T02:57:52.535Z,1.13
2023-05-03T03:00:21.850Z,1.20
2023-05-03T03:02:50.247Z,1.07
2023-05-03T03:05:18.521Z,1.20
2023-05-03T03:07:51.857Z,1.13
2023-05-03T03:10:20.308Z,1.23
2023-05-03T03:12:49.752Z,1.10
2023-05-03T03:15:26.528Z,1.23
2023-05-03T03:17:57.866Z,1.20
2023-05-03T03:20:26.992Z,1.20
2023-05-03T03:22:56.833Z,1.33
2023-05-03T03:25:24.992Z,1.30
2023-05-03T03:27:53.916Z,1.10
2023-05-03T03:30:22.095Z,1.37
2023-05-03T03:33:11.461Z,1.27
2023-05-03T03:35:42.219Z,1.40
2023-05-03T03:38:13.813Z,1.37
2023-05-03T03:40:49.886Z,1.67
2023-05-03T03:43:18.055Z,1.37
2023-05-03T03:45:47.052Z,1.30
2023-05-03T03:48:16.750Z,1.20
2023-05-03T03:50:45.201Z,1.47
2023-05-03T03:53:16.085Z,1.30
2023-05-03T03:55:45.027Z,1.40
2023-05-03T03:58:14.477Z,1.43
2023-05-03T04:00:42.833Z,1.27
2023-05-03T04:03:17.777Z,1.10
2023-05-03T04:05:46.641Z,1.40
2023-05-03T04:08:17.104Z,1.00
2023-05-03T04:10:45.615Z,1.10
2023-05-03T04:13:14.168Z,1.37
2023-05-03T04:15:42.385Z,1.17
2023-05-03T04:18:10.559Z,1.70
2023-05-03T04:20:40.801Z,1.47
2023-05-03T04:23:10.159Z,1.40
2023-05-03T04:25:46.834Z,1.23
2023-05-03T04:28:16.529Z,1.67
2023-05-03T04:30:48.508Z,1.40
2023-05-03T04:33:22.703Z,1.53
2023-05-03T04:35:53.360Z,1.70
2023-05-03T04:38:22.301Z,1.50
2023-05-03T04:40:52.584Z,1.63
2023-05-03T04:43:20.871Z,1.43
2023-05-03T04:45:50.430Z,1.47
2023-05-03T04:48:22.690Z,1.70
2023-05-03T04:50:52.199Z,1.50
2023-05-03T04:53:22.454Z,1.50
2023-05-03T04:56:01.448Z,1.50
2023-05-03T04:58:32.463Z,2.10
2023-05-03T05:01:01.129Z,2.13
2023-05-03T05:03:32.304Z,1.80
2023-05-03T05:06:04.307Z,1.93
2023-05-03T05:08:34.520Z,1.90
2023-05-03T05:11:05.449Z,2.03
2023-05-03T05:13:34.079Z,1.80
2023-05-03T05:16:02.830Z,1.93
2023-05-03T05:18:31.295Z,1.80
2023-05-03T05:21:03.384Z,1.67
2023-05-03T05:23:33.737Z,1.87
2023-05-03T05:26:01.861Z,1.80
2023-05-03T05:28:34.218Z,1.93
2023-05-03T05:31:02.793Z,1.80
2023-05-03T05:33:32.440Z,1.83
2023-05-03T05:36:00.921Z,2.00
2023-05-03T05:38:29.132Z,2.10
2023-05-03T05:40:59.625Z,2.00
2023-05-03T05:43:27.766Z,1.77
2023-05-03T05:45:58.252Z,2.10
2023-05-03T05:48:26.561Z,2.17
2023-05-03T05:50:55.028Z,1.80
2023-05-03T05:53:23.872Z,1.77
2023-05-03T05:55:58.528Z,1.70
2023-05-03T05:58:28.238Z,1.70
2023-05-03T06:01:01.371Z,1.80
2023-05-03T06:03:32.300Z,2.00
2023-05-03T06:06:02.797Z,1.90
2023-05-03T06:08:31.049Z,2.20
2023-05-03T06:10:59.062Z,2.07
2023-05-03T06:13:29.049Z,2.00
2023-05-03T06:16:01.066Z,2.00
2023-05-03T06:18:30.228Z,2.00
2023-05-03T06:20:58.582Z,1.90
2023-05-03T06:23:27.988Z,2.07
2023-05-03T06:25:57.632Z,1.90
2023-05-03T06:28:26.323Z,1.97
2023-05-03T06:30:56.693Z,1.90
2023-05-03T06:33:27.060Z,2.60
2023-05-03T06:35:56.618Z,2.40
2023-05-03T06:38:24.862Z,2.17
2023-05-03T06:40:52.940Z,2.27
2023-05-03T06:43:22.360Z,2.30
2023-05-03T06:46:12.605Z,2.17
2023-05-03T06:48:42.241Z,2.37
2023-05-03T06:51:10.489Z,2.57
2023-05-03T06:53:38.691Z,2.37
2023-05-03T06:56:07.496Z,2.50
2023-05-03T06:58:35.550Z,2.40
2023-05-03T07:01:03.696Z,2.37
2023-05-03T07:03:32.157Z,2.17
2023-05-03T07:06:02.200Z,2.20
2023-05-03T07:08:30.833Z,2.23
2023-05-03T07:10:58.995Z,2.60
2023-05-03T07:13:27.215Z,2.30
2023-05-03T07:15:55.334Z,2.93
2023-05-03T07:18:23.507Z,2.70
2023-05-03T07:20:51.578Z,3.00
2023-05-03T07:23:21.232Z,2.83
2023-05-03T07:25:49.451Z,3.00
2023-05-03T07:28:18.384Z,2.60
2023-05-03T07:30:46.944Z,3.63
2023-05-03T07:33:15.255Z,2.73
2023-05-03T07:35:43.616Z,2.75
2023-05-03T07:38:11.633Z,2.87
2023-05-03T07:40:41.784Z,2.80
2023-05-03T07:43:10.762Z,2.60
2023-05-03T07:45:38.937Z,3.00
2023-05-03T07:48:07.761Z,3.17
2023-05-03T07:50:35.990Z,2.90
2023-05-03T07:53:04.187Z,3.03
2023-05-03T07:55:33.269Z,3.23
2023-05-03T07:58:03.808Z,2.97
2023-05-03T08:00:32.434Z,2.77
2023-05-03T08:03:02.525Z,3.05
2023-05-03T08:05:31.302Z,2.80
2023-05-03T08:07:59.400Z,3.17
2023-05-03T08:10:27.544Z,2.55
2023-05-03T08:12:55.661Z,3.10
2023-05-03T08:15:25.152Z,2.95
2023-05-03T08:17:53.382Z,2.67
2023-05-03T08:20:21.870Z,3.05
2023-05-03T08:23:00.333Z,3.30
2023-05-03T08:25:28.721Z,2.88
2023-05-03T08:27:57.219Z,3.00
2023-05-03T08:30:27.181Z,3.10
2023-05-03T08:32:55.623Z,3.03
2023-05-03T08:35:23.915Z,2.78
2023-05-03T08:37:52.100Z,2.50
2023-05-03T08:40:23.198Z,3.00
2023-05-03T08:42:51.731Z,3.00
2023-05-03T08:45:20.106Z,2.85
2023-05-03T08:47:55.840Z,3.53
2023-05-03T08:50:25.631Z,3.10
2023-05-03T08:52:53.908Z,2.47
2023-05-03T08:55:22.329Z,2.60
2023-05-03T08:57:50.826Z,2.97
2023-05-03T09:00:19.484Z,2.70
2023-05-03T09:02:51.859Z,3.05
2023-05-03T09:05:39.072Z,2.60
2023-05-03T09:08:09.341Z,2.83
2023-05-03T09:10:40.465Z,3.08
2023-05-03T09:13:09.974Z,2.85
2023-05-03T09:15:38.313Z,2.72
2023-05-03T09:18:17.584Z,2.30
2023-05-03T09:20:52.209Z,2.65
2023-05-03T09:23:31.410Z,2.80
2023-05-03T09:26:00.598Z,2.80
2023-05-03T09:28:28.731Z,2.75
2023-05-03T09:31:07.658Z,2.50
2023-05-03T09:33:37.340Z,2.92
2023-05-03T09:36:06.830Z,2.78
2023-05-03T09:38:36.756Z,2.83
2023-05-03T09:41:06.377Z,2.60
2023-05-03T09:43:34.972Z,2.97
2023-05-03T09:46:11.176Z,3.30
2023-05-03T09:48:41.778Z,3.00
2023-05-03T09:51:11.595Z,2.92
2023-05-03T09:53:41.594Z,2.97
2023-05-03T09:56:13.264Z,2.78
2023-05-03T09:58:42.405Z,2.80
2023-05-03T10:01:11.252Z,2.95
2023-05-03T10:03:44.154Z,3.05
2023-05-03T10:06:23.876Z,2.92
2023-05-03T10:08:55.093Z,3.55
2023-05-03T10:11:25.547Z,2.67
2023-05-03T10:13:53.982Z,2.78
2023-05-03T10:16:27.727Z,2.78
2023-05-03T10:19:05.677Z,3.00
2023-05-03T10:21:50.078Z,2.95
2023-05-03T10:24:18.522Z,2.78
2023-05-03T10:26:48.558Z,2.75
2023-05-03T10:29:54.315Z,3.28
2023-05-03T10:32:30.625Z,2.53
2023-05-03T10:35:03.693Z,3.63
2023-05-03T10:37:34.766Z,3.00
2023-05-03T10:40:11.510Z,3.40
2023-05-03T10:42:40.239Z,2.60
2023-05-03T10:45:20.978Z,3.20
2023-05-03T10:48:22.842Z,3.08
2023-05-03T10:50:56.020Z,3.55
2023-05-03T10:53:38.657Z,2.60
2023-05-03T10:56:09.140Z,2.88
2023-05-03T10:58:38.890Z,2.83
2023-05-03T11:01:08.360Z,2.58
2023-05-03T11:03:45.060Z,3.35
2023-05-03T11:09:12.289Z,3.22
2023-05-03T11:11:42.075Z,3.20
2023-05-03T11:14:11.707Z,3.03
2023-05-03T11:16:47.392Z,3.03
2023-05-03T11:19:16.574Z,2.95
2023-05-03T11:21:47.020Z,3.15
2023-05-03T11:24:18.152Z,3.45
2023-05-03T11:26:46.388Z,3.47
2023-05-03T11:29:17.289Z,3.92
2023-05-03T11:31:46.014Z,3.90
2023-05-03T11:34:15.906Z,4.47
2023-05-03T11:36:44.145Z,5.03
2023-05-03T11:39:13.955Z,4.82
2023-05-03T11:41:43.514Z,5.20
2023-05-03T11:44:17.696Z,5.53
2023-05-03T11:46:47.904Z,5.03
2023-05-03T11:49:20.030Z,5.50
2023-05-03T11:51:52.609Z,5.00
2023-05-03T11:54:26.198Z,5.70
2023-05-03T11:56:59.971Z,5.60
2023-05-03T11:59:39.462Z,5.17
2023-05-03T12:02:09.365Z,5.97
2023-05-03T12:04:41.545Z,5.17
2023-05-03T12:07:11.854Z,5.27
2023-05-03T12:09:43.972Z,5.57
2023-05-03T12:12:26.336Z,5.37
2023-05-03T12:14:59.785Z,5.90
2023-05-03T12:17:44.687Z,6.17
2023-05-03T12:20:50.422Z,7.53
2023-05-03T12:23:09.729Z,6.40
2023-05-03T12:25:40.445Z,5.83
2023-05-03T12:28:20.083Z,5.77
2023-05-03T12:30:49.068Z,5.40
2023-05-03T12:33:22.052Z,5.90
2023-05-03T12:35:53.452Z,4.83
2023-05-03T12:38:23.910Z,5.33
2023-05-03T12:40:54.691Z,4.33
2023-05-03T12:43:25.584Z,5.43
2023-05-03T12:46:12.570Z,4.37
2023-05-03T12:48:46.136Z,5.07
2023-05-03T12:51:19.794Z,5.27
2023-05-03T12:53:54.370Z,4.90
2023-05-03T12:56:24.761Z,5.17
2023-05-03T13:04:24.034Z,5.83
2023-05-03T13:06:48.177Z,6.40
2023-05-03T13:09:21.497Z,5.67
2023-05-03T13:11:53.302Z,6.07
2023-05-03T13:14:23.306Z,6.33
2023-05-03T13:16:52.148Z,5.87
2023-05-03T13:19:21.017Z,6.37
2023-05-03T13:21:49.874Z,6.40
2023-05-03T13:24:18.098Z,6.67
2023-05-03T13:26:46.582Z,6.20
2023-05-03T13:29:14.752Z,7.30
2023-05-03T13:31:44.293Z,6.90
2023-05-03T13:34:12.535Z,6.37
2023-05-03T13:36:40.965Z,7.00
2023-05-03T13:39:10.613Z,6.53
2023-05-03T13:41:41.033Z,6.70
2023-05-03T13:44:09.769Z,6.23
2023-05-03T13:46:38.572Z,6.53
2023-05-03T13:49:09.014Z,7.10
2023-05-03T13:51:37.771Z,6.53
2023-05-03T13:54:07.774Z,7.00
2023-05-03T13:56:36.649Z,7.77
2023-05-03T13:59:05.566Z,7.30
2023-05-03T14:01:33.829Z,6.77
2023-05-03T14:04:02.366Z,5.97
2023-05-03T14:06:33.628Z,6.63
2023-05-03T14:09:02.709Z,6.67
2023-05-03T14:11:31.465Z,7.20
2023-05-03T14:13:59.954Z,6.93
2023-05-03T14:18:59.843Z,6.63
2023-05-03T14:21:29.807Z,6.60
2023-05-03T14:23:59.352Z,6.70
2023-05-03T14:26:29.633Z,6.50
2023-05-03T14:28:58.076Z,6.60
2023-05-03T14:31:26.445Z,6.97
2023-05-03T14:33:55.250Z,7.13
2023-05-03T14:36:23.631Z,7.63
2023-05-03T14:38:51.737Z,7.17
2023-05-03T14:41:21.896Z,7.57
2023-05-03T14:43:50.371Z,6.67
2023-05-03T14:46:18.660Z,7.70
2023-05-03T14:48:46.897Z,7.13
2023-05-03T14:51:15.543Z,7.20
2023-05-03T14:53:43.719Z,7.73
2023-05-03T14:56:11.851Z,7.03
2023-05-03T14:58:41.388Z,7.67
2023-05-03T15:01:09.598Z,7.13
2023-05-03T15:03:38.192Z,8.13
2023-05-03T15:06:06.911Z,7.70
2023-05-03T15:08:35.082Z,7.47
2023-05-03T15:11:03.436Z,7.63
2023-05-03T15:13:31.895Z,7.80
2023-05-03T15:16:01.538Z,7.83
2023-05-03T15:18:29.735Z,7.50
2023-05-03T15:20:58.012Z,8.63
2023-05-03T15:23:26.284Z,9.20
2023-05-03T15:25:54.510Z,9.20
2023-05-03T15:28:22.758Z,8.47
2023-05-03T15:30:51.701Z,8.17
2023-05-03T15:33:21.297Z,8.40
2023-05-03T15:35:49.562Z,6.97
2023-05-03T15:38:18.345Z,6.40
2023-05-03T15:40:46.575Z,7.60
2023-05-03T15:43:14.776Z,7.63
2023-05-03T15:45:42.929Z,7.27
2023-05-03T15:48:11.124Z,6.53
2023-05-03T15:50:40.835Z,6.63
2023-05-03T15:53:09.216Z,6.97
2023-05-03T15:55:37.525Z,6.77
2023-05-03T15:58:07.599Z,6.53
2023-05-03T16:00:35.831Z,6.40
2023-05-03T16:03:04.792Z,6.33
2023-05-03T16:05:33.121Z,7.40
2023-05-03T16:08:02.782Z,7.53
2023-05-03T16:10:31.122Z,8.00
2023-05-03T16:12:59.318Z,6.60
2023-05-03T16:15:27.500Z,6.90
2023-05-03T16:17:55.828Z,6.87
2023-05-03T16:20:23.977Z,6.40
2023-05-03T16:22:53.020Z,6.90
2023-05-03T16:25:22.887Z,7.67
2023-05-03T16:27:51.032Z,9.03
2023-05-03T16:30:19.325Z,8.20
2023-05-03T16:32:48.322Z,9.40
2023-05-03T16:35:16.968Z,8.17
2023-05-03T16:37:45.211Z,8.83
2023-05-03T16:40:13.852Z,9.13
2023-05-03T16:42:43.616Z,26.20
2023-05-03T16:45:13.130Z,11.00
2023-05-03T16:47:41.765Z,8.50
2023-05-03T16:50:11.090Z,8.80
2023-05-03T16:52:40.751Z,8.07
2023-05-03T16:55:10.981Z,7.47
2023-05-03T16:57:39.939Z,8.20
2023-05-03T17:00:11.561Z,9.23
2023-05-03T17:02:40.302Z,8.00
2023-05-03T17:05:10.628Z,8.03
2023-05-03T17:07:41.075Z,8.40
2023-05-03T17:10:10.626Z,7.27
2023-05-03T17:12:38.735Z,7.57
2023-05-03T17:15:10.266Z,6.67
2023-05-03T17:17:38.486Z,9.87
2023-05-03T17:20:08.392Z,9.70
2023-05-03T17:22:36.471Z,8.07
2023-05-03T17:25:05.879Z,7.23
2023-05-03T17:27:34.152Z,6.33
2023-05-03T17:30:02.798Z,7.27
2023-05-03T17:32:33.056Z,7.20
2023-05-03T17:35:01.279Z,6.97
2023-05-03T17:37:29.460Z,6.70
2023-05-03T17:39:58.235Z,6.70
2023-05-03T17:42:26.522Z,7.07
2023-05-03T17:44:55.554Z,6.37
2023-05-03T17:47:25.177Z,6.33
2023-05-03T17:49:55.016Z,6.53
2023-05-03T17:52:23.495Z,6.57
2023-05-03T17:54:55.151Z,5.83
2023-05-03T17:57:23.446Z,6.67
2023-05-03T17:59:51.864Z,6.57
2023-05-03T18:02:22.063Z,6.83
2023-05-03T18:04:50.874Z,7.00
2023-05-03T18:07:20.671Z,7.03
2023-05-03T18:09:48.726Z,7.57
2023-05-03T18:12:16.981Z,7.23
2023-05-03T18:14:45.466Z,7.33
2023-05-03T18:17:13.846Z,7.27
2023-05-03T18:19:44.966Z,7.30
2023-05-03T18:22:13.568Z,7.30
2023-05-03T18:24:43.568Z,7.07
2023-05-03T18:27:14.143Z,7.33
2023-05-03T18:29:43.530Z,8.30
2023-05-03T18:32:12.161Z,8.00
2023-05-03T18:34:41.071Z,7.90
2023-05-03T18:37:10.045Z,8.17
2023-05-03T18:39:38.605Z,7.00
2023-05-03T18:42:08.174Z,6.93
2023-05-03T18:44:38.641Z,6.23
2023-05-03T18:47:08.080Z,6.30
2023-05-03T18:49:36.832Z,5.67
2023-05-03T18:52:05.691Z,5.70
2023-05-03T18:54:35.450Z,5.90
2023-05-03T18:57:04.172Z,5.97
2023-05-03T18:59:40.301Z,5.77
2023-05-03T19:02:15.619Z,5.33
2023-05-03T19:04:44.904Z,6.63
2023-05-03T19:07:14.084Z,6.87
2023-05-03T19:09:42.490Z,8.17
2023-05-03T19:12:12.666Z,7.57
2023-05-03T19:14:45.712Z,8.30
2023-05-03T19:17:15.387Z,6.67
2023-05-03T19:19:44.317Z,8.40
2023-05-03T19:22:12.514Z,7.97
2023-05-03T19:24:44.452Z,5.70
2023-05-03T19:27:13.804Z,5.83
2023-05-03T19:29:45.967Z,5.97
2023-05-03T19:32:15.381Z,6.43
2023-05-03T19:34:45.103Z,5.53
2023-05-03T19:37:14.123Z,5.70
2023-05-03T19:39:43.400Z,7.07
2023-05-03T19:42:16.209Z,7.37
2023-05-03T19:44:46.917Z,7.27
2023-05-03T19:47:15.639Z,8.30
2023-05-03T19:49:44.694Z,7.23
2023-05-03T19:52:14.288Z,5.47
2023-05-03T19:54:42.986Z,4.63
2023-05-03T19:57:12.038Z,4.93
2023-05-03T19:59:40.209Z,5.67
2023-05-03T20:02:11.624Z,6.13
2023-05-03T20:04:42.841Z,6.50
2023-05-03T20:07:11.741Z,6.70
2023-05-03T20:09:39.957Z,6.20
2023-05-03T20:12:10.236Z,6.37
2023-05-03T20:14:38.485Z,5.60
2023-05-03T20:17:07.246Z,5.87
2023-05-03T20:19:37.994Z,6.17
2023-05-03T20:22:06.674Z,6.43
2023-05-03T20:24:36.055Z,5.80
2023-05-03T20:27:04.316Z,5.33
2023-05-03T20:29:33.141Z,5.87
2023-05-03T20:32:03.994Z,5.67
2023-05-03T20:34:32.154Z,5.50
2023-05-03T20:37:01.937Z,5.03
2023-05-03T20:39:30.322Z,5.53
2023-05-03T20:41:58.513Z,4.70
2023-05-03T20:44:26.961Z,4.80
2023-05-03T20:46:55.451Z,4.57
2023-05-03T20:49:23.604Z,5.10
2023-05-03T20:51:51.801Z,5.13
2023-05-03T20:54:21.331Z,4.53
2023-05-03T20:56:49.592Z,4.77
2023-05-03T20:59:17.933Z,4.67
2023-05-03T21:01:46.466Z,4.47
2023-05-03T21:04:14.770Z,4.97
2023-05-03T21:06:45.035Z,4.83
2023-05-03T21:09:13.664Z,4.53
2023-05-03T21:11:43.461Z,4.90
2023-05-03T21:14:13.760Z,4.83
2023-05-03T21:16:41.894Z,4.60
2023-05-03T21:19:10.551Z,5.20
2023-05-03T21:21:38.761Z,4.77
2023-05-03T21:24:08.173Z,4.77
2023-05-03T21:26:36.366Z,5.33
2023-05-03T21:29:07.377Z,5.37
2023-05-03T21:31:35.823Z,4.97
2023-05-03T21:34:05.121Z,5.67
2023-05-03T21:36:33.606Z,5.67
2023-05-03T21:39:01.736Z,5.00
2023-05-03T21:41:29.943Z,5.73
2023-05-03T21:43:58.194Z,5.20
2023-05-03T21:46:27.848Z,5.93
2023-05-03T21:48:56.064Z,6.53
2023-05-03T21:51:25.070Z,6.17
2023-05-03T21:53:53.576Z,5.67
2023-05-03T21:56:21.814Z,5.93
2023-05-03T21:58:50.150Z,5.83
2023-05-03T22:01:19.630Z,5.57
2023-05-03T22:03:49.505Z,6.90
2023-05-03T22:06:17.983Z,8.10
2023-05-03T22:08:46.379Z,8.13
2023-05-03T22:11:14.884Z,7.50
2023-05-03T22:13:58.760Z,5.60
2023-05-03T22:16:31.256Z,5.73
2023-05-03T22:19:00.853Z,4.23
2023-05-03T22:21:28.997Z,4.63
2023-05-03T22:23:57.471Z,4.93
2023-05-03T22:26:26.188Z,5.20
2023-05-03T22:28:54.775Z,5.30
2023-05-03T22:31:23.030Z,4.97
2023-05-03T22:33:51.414Z,5.23
2023-05-03T22:36:20.943Z,5.27
2023-05-03T22:38:49.284Z,5.60
2023-05-03T22:41:17.545Z,5.10
2023-05-03T22:43:45.662Z,5.50
2023-05-03T22:46:14.074Z,5.13
2023-05-03T22:48:42.195Z,5.60
2023-05-03T22:51:10.284Z,5.73
2023-05-03T22:53:39.759Z,5.30
2023-05-03T22:56:08.662Z,5.30
2023-05-03T22:58:37.298Z,4.70
2023-05-03T23:01:05.661Z,4.90
2023-05-03T23:03:33.966Z,4.97
2023-05-03T23:06:02.103Z,4.37
2023-05-03T23:08:30.324Z,5.80
2023-05-03T23:11:00.401Z,5.47
2023-05-03T23:13:28.541Z,5.00
2023-05-03T23:15:56.813Z,5.83
2023-05-03T23:18:25.092Z,5.57
2023-05-03T23:20:53.659Z,6.17
2023-05-03T23:23:21.958Z,6.93
2023-05-03T23:25:50.156Z,7.67
2023-05-03T23:28:19.730Z,7.47
2023-05-03T23:30:48.248Z,7.40
2023-05-03T23:33:17.231Z,7.80
2023-05-03T23:35:45.695Z,6.80
2023-05-03T23:38:13.843Z,6.47
2023-05-03T23:40:42.036Z,6.17
2023-05-03T23:43:10.109Z,6.10
2023-05-03T23:45:39.642Z,6.10
2023-05-03T23:48:08.540Z,6.10
2023-05-03T23:50:36.807Z,5.73
2023-05-03T23:53:05.227Z,6.50
2023-05-03T23:55:33.402Z,6.37
2023-05-03T23:58:01.569Z,5.93
